Windham, ME (04062)

12:09 AM EDT on June 03, 2015 (GMT -0400)
302/River Road | | Change Station
CLOSE
Current Station
Personal Weather Station
Location: Windham, ME
Elevation: 269 ft
Nearby Weather Stations

Elev 269 ft 43.81 °N, 70.43 °W | Updated 6 seconds ago

Overcast
Overcast
46.6 °F
Feels Like 47 °F
N
0.0
Wind Variable Wind from ESE
Gusts 0.0 mph

Today
High -- | Low -- °F
--% Chance of Precip.
Yesterday
High -- | Low -- °F
Precip. -- in
5:01 AM 8:18 PM
Full, 100% visible
Pressure 30.19 in
Visibility 10.0 miles
Clouds Overcast 3700 ft
Windchill 47 °F
Dew Point 46 °F
Humidity 99%
Rainfall 0.00 in
Snow Depth Not available.
UV 0.0 out of 12
Pollen .90 out of 12
Air Quality Not available.
Flu Activity Regional
METAR KPWM 030351Z 01003KT 10SM OVC037 08/07 A3019 RMK AO2 SLP224 T00780072

More Conditions Fewer Conditions

Pressure 30.19 in
Visibility 10.0 miles
Clouds Overcast 3700 ft
Windchill 47 °F
Dew Point 46 °F
Humidity 99%
Rainfall 0.00 in
Snow Depth Not available.
UV 0.0 out of 12
Pollen .90 out of 12
Air Quality Not available.
Flu Activity Regional
METAR KPWM 030351Z 01003KT 10SM OVC037 08/07 A3019 RMK AO2 SLP224 T00780072

More Conditions Fewer Conditions

10-Day Weather Forecast

×

Almanac

Astronomy

Jun. 03, 2015 Rise Set
Actual Time
Civil Twilight
Nautical Twilight
Astronomical Twilight
Moon
Length of Visible Light
Length of Day
Tomorrow will be .
, % of the Moon is Illuminated

Today's Extremes

State Highs State Lows

Community

WunderPhotos

Upload Photos

1,826,155 photos uploaded!

WunderBlogs® & News

Nearby

Air Quality

  Air Quality AQ Index Pollutant
Not available.

Snow Depth

Station Depth Elevation

Earthquake Activity

City Distance Mag. Time & Date
Minimum magnitude displayed is 2.5.

Coastal Water Temperatures

Place Temperature

Stations

Nearby Weather Stations

Station Location Temp. Windchill Dew Point Humidity Wind Precip. Elev Updated Type